createdAt,value
2022-11-24T06:51:53.782Z,15.9
2022-11-24T06:54:54.026Z,13.8
2022-11-24T06:57:54.237Z,11.9
2022-11-24T07:00:54.507Z,10
2022-11-24T07:03:54.719Z,8.1
2022-11-24T07:06:54.919Z,6.6
2022-11-24T07:09:55.164Z,5.1
2022-11-24T07:12:55.363Z,3.7
2022-11-24T07:15:50.651Z,4.5
2022-11-24T07:18:55.852Z,5
2022-11-24T07:21:51.079Z,5.5
2022-11-24T07:24:51.272Z,6
2022-11-24T07:27:51.543Z,6.6
2022-11-24T07:30:51.735Z,7
2022-11-24T07:33:51.994Z,7.5
2022-11-24T07:36:52.189Z,8.3
2022-11-24T07:39:52.462Z,9.4
2022-11-24T07:42:52.639Z,10.9
2022-11-24T07:45:52.971Z,12.9
2022-11-24T07:48:53.097Z,15.7
2022-11-24T07:51:53.357Z,19.4
2022-11-24T07:54:53.553Z,22.8
2022-11-24T07:57:53.791Z,25.9
2022-11-24T08:00:53.998Z,28.8
2022-11-24T08:03:54.330Z,31.9
2022-11-24T08:06:54.465Z,35.6
2022-11-24T08:09:54.711Z,39.8
2022-11-24T08:12:54.907Z,43.3
2022-11-24T08:15:55.165Z,46.7
2022-11-24T08:18:55.423Z,49.6
2022-11-24T08:21:50.592Z,52.2
2022-11-24T08:24:55.844Z,53.9
2022-11-24T08:27:56.047Z,55.6
2022-11-24T08:30:51.274Z,56.8
2022-11-24T08:33:51.525Z,58
2022-11-24T08:36:51.704Z,59.3
2022-11-24T08:39:51.970Z,59.6
2022-11-24T08:42:52.231Z,59.4
2022-11-24T08:45:52.478Z,60.2
2022-11-24T08:48:52.632Z,62.7
2022-11-24T08:51:52.888Z,65
2022-11-24T08:54:53.085Z,65.3
2022-11-24T08:57:53.335Z,64.4
2022-11-24T09:00:53.543Z,64.7
2022-11-24T09:03:53.852Z,65.7
2022-11-24T09:06:54.005Z,67.8
2022-11-24T09:09:55.515Z,67.8
2022-11-24T09:12:54.467Z,71
2022-11-24T09:15:54.673Z,73.2
2022-11-24T09:18:54.854Z,76.5
2022-11-24T09:21:55.094Z,81.5
2022-11-24T09:24:55.453Z,85.1
2022-11-24T09:27:55.434Z,86.4
2022-11-24T09:30:55.667Z,86.5
2022-11-24T09:33:50.868Z,87.1
2022-11-24T09:36:56.071Z,87.1
2022-11-24T09:39:51.321Z,89.2
2022-11-24T09:42:53.686Z,91.1
2022-11-24T09:46:05.083Z,91.6
2022-11-24T09:48:51.978Z,93.2
2022-11-24T09:51:52.254Z,99.6
2022-11-24T09:54:52.428Z,108.3
2022-11-24T09:57:52.689Z,119.4
2022-11-24T10:00:52.917Z,130.1
2022-11-24T10:03:53.181Z,139.2
2022-11-24T10:06:53.338Z,145.6
2022-11-24T10:09:53.592Z,156.3
2022-11-24T10:12:53.799Z,166.5
2022-11-24T10:15:54.078Z,170.6
2022-11-24T10:18:54.278Z,174.6
2022-11-24T10:21:54.513Z,174.2
2022-11-24T10:24:54.714Z,173.3
2022-11-24T10:27:54.974Z,173.3
2022-11-24T10:31:00.248Z,176.7
2022-11-24T10:33:55.429Z,177.9
2022-11-24T10:36:50.625Z,181.1
2022-11-24T10:39:59.894Z,187.2
2022-11-24T10:42:51.107Z,190
2022-11-24T10:45:51.360Z,195.8
2022-11-24T10:48:51.561Z,201.5
2022-11-24T10:51:51.787Z,204.4
2022-11-24T10:54:51.985Z,208.2
2022-11-24T10:57:52.271Z,211.7
2022-11-24T11:00:52.444Z,214.7
2022-11-24T11:03:52.690Z,217.1
2022-11-24T11:06:52.918Z,221.4
2022-11-24T11:09:53.131Z,225.3
2022-11-24T11:12:53.375Z,230.7
2022-11-24T11:15:53.667Z,240.9
2022-11-24T11:18:53.825Z,250
2022-11-24T11:21:54.036Z,254.5
2022-11-24T11:24:54.296Z,259.7
2022-11-24T11:27:54.499Z,261.7
2022-11-24T11:31:19.989Z,259.4
2022-11-24T11:34:08.413Z,251.9
2022-11-24T11:36:55.198Z,251.8
2022-11-24T11:39:55.386Z,248.3
2022-11-24T11:43:03.011Z,232.6
2022-11-24T11:45:50.875Z,215.8
2022-11-24T11:48:56.128Z,194.9
2022-11-24T11:51:51.309Z,174.7
2022-11-24T11:54:51.552Z,156.1
2022-11-24T11:57:51.797Z,139.7
2022-11-24T12:00:52.010Z,114
2022-11-24T12:03:52.346Z,88.9
2022-11-24T12:06:52.462Z,74.3
2022-11-24T12:09:52.692Z,64.3
2022-11-24T12:12:52.928Z,57.7
2022-11-24T12:15:53.185Z,54.2
2022-11-24T12:18:58.260Z,53
2022-11-24T12:21:53.662Z,53.8
2022-11-24T12:24:53.811Z,53.9
2022-11-24T12:27:54.027Z,52.9
2022-11-24T12:30:54.293Z,53.2
2022-11-24T12:33:59.553Z,54.9
2022-11-24T12:36:54.739Z,56.1
2022-11-24T12:39:54.963Z,56.9
2022-11-24T12:42:55.154Z,57
2022-11-24T12:45:55.408Z,58.1
2022-11-24T12:48:50.608Z,60
2022-11-24T12:51:50.869Z,62
2022-11-24T12:54:56.076Z,64.6
2022-11-24T12:57:51.314Z,68.3
2022-11-24T13:00:51.515Z,70.2
2022-11-24T13:03:51.782Z,69.5
2022-11-24T13:06:51.977Z,68.4
2022-11-24T13:09:52.239Z,65.4
2022-11-24T13:12:52.501Z,62.2
2022-11-24T13:18:52.965Z,53.4
2022-11-24T13:21:53.116Z,45.7
2022-11-24T13:24:53.331Z,39.7
2022-11-24T13:27:53.623Z,36.8
2022-11-24T13:30:58.840Z,35.4
2022-11-24T13:33:54.043Z,36
2022-11-24T13:36:54.243Z,37.1
2022-11-24T13:39:54.567Z,37.2
2022-11-24T13:42:54.690Z,37.8
2022-11-24T13:45:54.944Z,38.2
2022-11-24T13:48:55.150Z,37.6
2022-11-24T13:51:55.399Z,36.8
2022-11-24T13:54:55.596Z,36.3
2022-11-24T13:57:55.883Z,34.5
2022-11-24T14:00:58.430Z,32.7
2022-11-24T14:04:22.016Z,31.1
2022-11-24T14:06:51.508Z,30.1
2022-11-24T14:09:51.768Z,29.9
2022-11-24T14:12:51.952Z,31.5
2022-11-24T14:15:52.311Z,31.7
2022-11-24T14:18:52.604Z,30.1
2022-11-24T14:21:52.642Z,30.7
2022-11-24T14:24:52.897Z,30.7
2022-11-24T14:27:53.178Z,32
2022-11-24T14:30:53.391Z,33.1
2022-11-24T14:33:53.587Z,33.3
2022-11-24T14:36:53.779Z,32.7
2022-11-24T14:39:54.036Z,33.5
2022-11-24T14:42:54.309Z,34.5
2022-11-24T14:45:54.506Z,33.1
2022-11-24T14:48:59.716Z,31.8
2022-11-24T14:51:54.911Z,30.2
2022-11-24T14:54:55.157Z,28.4
2022-11-24T14:57:55.373Z,26.8
2022-11-24T15:00:55.698Z,24.8
2022-11-24T15:03:55.824Z,22.6
2022-11-24T15:06:56.074Z,21
2022-11-24T15:09:51.289Z,19.9
2022-11-24T15:12:51.533Z,19
2022-11-24T15:15:51.796Z,18.3
2022-11-24T15:18:51.992Z,17.9
2022-11-24T15:21:52.229Z,17.7
2022-11-24T15:24:52.392Z,17.5
2022-11-24T15:27:52.675Z,17.3
2022-11-24T15:30:52.902Z,17.3
2022-11-24T15:33:53.120Z,17.3
2022-11-24T15:36:53.355Z,17.3
2022-11-24T15:39:53.564Z,17.3
2022-11-24T15:42:53.815Z,17.3
2022-11-24T15:45:54.012Z,17.3
2022-11-24T15:48:54.345Z,17.3
2022-11-24T15:51:54.498Z,17.3
2022-11-24T15:54:54.726Z,17.3
2022-11-24T15:57:54.937Z,17.3
2022-11-24T16:00:55.220Z,17.3
2022-11-24T16:03:55.385Z,17.3
2022-11-24T16:06:50.635Z,17.3
2022-11-24T16:10:00.841Z,17.3
2022-11-24T16:12:56.098Z,17.3
2022-11-24T16:15:51.306Z,17.3
2022-11-24T16:18:51.541Z,17.3
2022-11-24T16:21:51.771Z,17.3
2022-11-24T16:24:51.976Z,17.3
2022-11-24T16:27:52.221Z,17.3
2022-11-24T18:06:54.678Z,17.5
2022-11-24T18:09:54.944Z,17.5
2022-11-24T18:12:55.143Z,17.5
2022-11-24T18:15:55.398Z,17.5
2022-11-24T18:19:07.404Z,17.5
2022-11-24T18:21:50.851Z,17.5
2022-11-24T18:24:56.065Z,17.5
2022-11-24T18:27:51.283Z,17.5
2022-11-24T18:30:51.534Z,17.5
2022-11-24T18:33:51.752Z,17.5
2022-11-24T18:36:51.973Z,17.5
2022-11-24T18:39:52.396Z,17.5
2022-11-24T18:42:52.515Z,17.5
2022-11-24T18:45:52.685Z,17.5
2022-11-24T18:48:52.884Z,17.5
2022-11-24T18:51:53.096Z,17.5
2022-11-24T18:54:53.341Z,17.5
2022-11-24T18:57:53.544Z,17.5
2022-11-24T19:00:53.870Z,17.5
2022-11-24T19:03:54.005Z,17.5
2022-11-24T19:06:54.228Z,17.5
